sensor_id;sensor_type;location;lat;lon;timestamp;P1;durP1;ratioP1;P2;durP2;ratioP2
14241;SDS011;7205;50.864;12.766;2023-01-29T00:01:09;9.30;;;7.50;;
14241;SDS011;7205;50.864;12.766;2023-01-29T00:03:37;8.30;;;7.07;;
14241;SDS011;7205;50.864;12.766;2023-01-29T00:06:05;7.30;;;6.60;;
14241;SDS011;7205;50.864;12.766;2023-01-29T00:08:33;7.40;;;6.70;;
14241;SDS011;7205;50.864;12.766;2023-01-29T00:11:01;7.40;;;6.60;;
14241;SDS011;7205;50.864;12.766;2023-01-29T00:13:28;9.83;;;7.33;;
14241;SDS011;7205;50.864;12.766;2023-01-29T00:15:55;9.33;;;7.07;;
14241;SDS011;7205;50.864;12.766;2023-01-29T00:18:23;8.00;;;7.10;;
14241;SDS011;7205;50.864;12.766;2023-01-29T00:20:53;7.73;;;6.93;;
14241;SDS011;7205;50.864;12.766;2023-01-29T00:23:20;8.97;;;6.97;;
14241;SDS011;7205;50.864;12.766;2023-01-29T00:25:47;8.00;;;7.00;;
14241;SDS011;7205;50.864;12.766;2023-01-29T00:28:14;7.13;;;6.43;;
14241;SDS011;7205;50.864;12.766;2023-01-29T00:30:42;5.97;;;5.23;;
14241;SDS011;7205;50.864;12.766;2023-01-29T00:33:09;6.80;;;6.20;;
14241;SDS011;7205;50.864;12.766;2023-01-29T00:35:38;6.07;;;5.50;;
14241;SDS011;7205;50.864;12.766;2023-01-29T00:38:06;6.07;;;5.47;;
14241;SDS011;7205;50.864;12.766;2023-01-29T00:40:36;5.90;;;5.30;;
14241;SDS011;7205;50.864;12.766;2023-01-29T00:43:20;5.87;;;5.27;;
14241;SDS011;7205;50.864;12.766;2023-01-29T00:46:05;7.53;;;5.87;;
14241;SDS011;7205;50.864;12.766;2023-01-29T00:48:32;6.97;;;5.50;;
14241;SDS011;7205;50.864;12.766;2023-01-29T00:50:59;6.03;;;5.50;;
14241;SDS011;7205;50.864;12.766;2023-01-29T00:53:27;11.47;;;5.60;;
14241;SDS011;7205;50.864;12.766;2023-01-29T00:55:55;6.07;;;5.40;;
14241;SDS011;7205;50.864;12.766;2023-01-29T00:58:22;7.63;;;5.80;;
14241;SDS011;7205;50.864;12.766;2023-01-29T01:00:52;6.70;;;6.10;;
14241;SDS011;7205;50.864;12.766;2023-01-29T01:03:20;6.67;;;5.97;;
14241;SDS011;7205;50.864;12.766;2023-01-29T01:05:45;7.03;;;6.40;;
14241;SDS011;7205;50.864;12.766;2023-01-29T01:08:12;7.17;;;6.47;;
14241;SDS011;7205;50.864;12.766;2023-01-29T01:11:02;5.50;;;5.00;;
14241;SDS011;7205;50.864;12.766;2023-01-29T01:13:31;6.40;;;5.80;;
14241;SDS011;7205;50.864;12.766;2023-01-29T01:15:59;6.50;;;5.90;;
14241;SDS011;7205;50.864;12.766;2023-01-29T01:18:28;6.60;;;5.90;;
14241;SDS011;7205;50.864;12.766;2023-01-29T01:20:56;6.67;;;5.57;;
14241;SDS011;7205;50.864;12.766;2023-01-29T01:23:24;7.87;;;5.80;;
14241;SDS011;7205;50.864;12.766;2023-01-29T01:25:52;6.27;;;5.47;;
14241;SDS011;7205;50.864;12.766;2023-01-29T01:28:21;6.80;;;5.47;;
14241;SDS011;7205;50.864;12.766;2023-01-29T01:30:47;6.33;;;5.73;;
14241;SDS011;7205;50.864;12.766;2023-01-29T01:33:14;6.30;;;5.80;;
14241;SDS011;7205;50.864;12.766;2023-01-29T01:35:42;7.30;;;6.60;;
14241;SDS011;7205;50.864;12.766;2023-01-29T01:38:09;6.33;;;5.80;;
14241;SDS011;7205;50.864;12.766;2023-01-29T01:40:36;7.53;;;6.00;;
14241;SDS011;7205;50.864;12.766;2023-01-29T01:43:10;6.53;;;5.50;;
14241;SDS011;7205;50.864;12.766;2023-01-29T01:45:38;6.47;;;5.83;;
14241;SDS011;7205;50.864;12.766;2023-01-29T01:48:07;7.83;;;6.00;;
14241;SDS011;7205;50.864;12.766;2023-01-29T01:50:39;6.17;;;5.60;;
14241;SDS011;7205;50.864;12.766;2023-01-29T01:53:09;6.67;;;6.07;;
14241;SDS011;7205;50.864;12.766;2023-01-29T01:55:39;6.27;;;5.67;;
14241;SDS011;7205;50.864;12.766;2023-01-29T01:58:12;6.70;;;6.10;;
14241;SDS011;7205;50.864;12.766;2023-01-29T02:00:48;7.80;;;6.40;;
14241;SDS011;7205;50.864;12.766;2023-01-29T02:03:15;7.00;;;6.30;;
14241;SDS011;7205;50.864;12.766;2023-01-29T02:06:02;6.73;;;6.03;;
14241;SDS011;7205;50.864;12.766;2023-01-29T02:08:49;7.40;;;6.70;;
14241;SDS011;7205;50.864;12.766;2023-01-29T02:11:37;6.80;;;6.13;;
14241;SDS011;7205;50.864;12.766;2023-01-29T02:14:05;7.73;;;6.73;;
14241;SDS011;7205;50.864;12.766;2023-01-29T02:16:34;7.53;;;6.70;;
14241;SDS011;7205;50.864;12.766;2023-01-29T02:19:02;7.60;;;6.83;;
14241;SDS011;7205;50.864;12.766;2023-01-29T02:21:47;8.07;;;6.73;;
14241;SDS011;7205;50.864;12.766;2023-01-29T02:27:26;7.40;;;6.50;;
14241;SDS011;7205;50.864;12.766;2023-01-29T02:30:08;7.40;;;6.70;;
14241;SDS011;7205;50.864;12.766;2023-01-29T02:32:45;6.63;;;6.03;;
14241;SDS011;7205;50.864;12.766;2023-01-29T02:35:24;6.73;;;6.03;;
14241;SDS011;7205;50.864;12.766;2023-01-29T02:37:58;7.90;;;6.93;;
14241;SDS011;7205;50.864;12.766;2023-01-29T02:40:34;8.47;;;6.87;;
14241;SDS011;7205;50.864;12.766;2023-01-29T02:43:07;9.53;;;6.30;;
14241;SDS011;7205;50.864;12.766;2023-01-29T02:45:45;7.60;;;6.27;;
14241;SDS011;7205;50.864;12.766;2023-01-29T02:48:16;7.53;;;5.97;;
14241;SDS011;7205;50.864;12.766;2023-01-29T02:50:47;6.63;;;6.00;;
14241;SDS011;7205;50.864;12.766;2023-01-29T02:53:20;7.70;;;6.13;;
14241;SDS011;7205;50.864;12.766;2023-01-29T02:55:51;7.13;;;6.43;;
14241;SDS011;7205;50.864;12.766;2023-01-29T02:58:24;8.30;;;6.13;;
14241;SDS011;7205;50.864;12.766;2023-01-29T03:00:58;6.77;;;6.17;;
14241;SDS011;7205;50.864;12.766;2023-01-29T03:03:33;8.37;;;5.97;;
14241;SDS011;7205;50.864;12.766;2023-01-29T03:06:05;6.53;;;5.93;;
14241;SDS011;7205;50.864;12.766;2023-01-29T03:08:45;7.93;;;6.57;;
14241;SDS011;7205;50.864;12.766;2023-01-29T03:11:16;6.40;;;5.77;;
14241;SDS011;7205;50.864;12.766;2023-01-29T03:13:44;7.07;;;6.33;;
14241;SDS011;7205;50.864;12.766;2023-01-29T03:16:17;6.77;;;6.10;;
14241;SDS011;7205;50.864;12.766;2023-01-29T03:18:49;7.43;;;6.13;;
14241;SDS011;7205;50.864;12.766;2023-01-29T03:21:22;8.00;;;6.47;;
14241;SDS011;7205;50.864;12.766;2023-01-29T03:24:29;6.97;;;6.30;;
14241;SDS011;7205;50.864;12.766;2023-01-29T03:27:22;7.80;;;6.00;;
14241;SDS011;7205;50.864;12.766;2023-01-29T03:30:10;6.33;;;5.73;;
14241;SDS011;7205;50.864;12.766;2023-01-29T03:33:18;7.17;;;6.30;;
14241;SDS011;7205;50.864;12.766;2023-01-29T03:35:50;6.20;;;5.60;;
14241;SDS011;7205;50.864;12.766;2023-01-29T03:38:22;6.90;;;6.20;;
14241;SDS011;7205;50.864;12.766;2023-01-29T03:40:57;7.67;;;6.10;;
14241;SDS011;7205;50.864;12.766;2023-01-29T03:43:32;7.90;;;5.60;;
14241;SDS011;7205;50.864;12.766;2023-01-29T03:46:05;6.10;;;5.53;;
14241;SDS011;7205;50.864;12.766;2023-01-29T03:48:44;6.20;;;5.70;;
14241;SDS011;7205;50.864;12.766;2023-01-29T03:51:21;6.17;;;5.63;;
14241;SDS011;7205;50.864;12.766;2023-01-29T03:53:55;7.23;;;6.00;;
14241;SDS011;7205;50.864;12.766;2023-01-29T03:56:33;6.03;;;5.53;;
14241;SDS011;7205;50.864;12.766;2023-01-29T03:59:14;7.70;;;6.90;;
14241;SDS011;7205;50.864;12.766;2023-01-29T04:02:03;6.60;;;6.00;;
14241;SDS011;7205;50.864;12.766;2023-01-29T04:04:36;6.50;;;5.90;;
14241;SDS011;7205;50.864;12.766;2023-01-29T04:07:07;8.77;;;6.23;;
14241;SDS011;7205;50.864;12.766;2023-01-29T04:09:39;6.13;;;5.53;;
14241;SDS011;7205;50.864;12.766;2023-01-29T04:12:12;6.73;;;6.03;;
14241;SDS011;7205;50.864;12.766;2023-01-29T04:14:44;6.77;;;6.07;;
14241;SDS011;7205;50.864;12.766;2023-01-29T04:17:14;7.77;;;6.27;;
14241;SDS011;7205;50.864;12.766;2023-01-29T04:19:52;9.23;;;6.23;;
14241;SDS011;7205;50.864;12.766;2023-01-29T04:22:20;7.00;;;6.27;;
14241;SDS011;7205;50.864;12.766;2023-01-29T04:24:53;6.20;;;5.60;;
14241;SDS011;7205;50.864;12.766;2023-01-29T04:27:29;6.90;;;6.20;;
14241;SDS011;7205;50.864;12.766;2023-01-29T04:30:08;6.60;;;5.93;;
14241;SDS011;7205;50.864;12.766;2023-01-29T04:32:48;6.30;;;5.53;;
14241;SDS011;7205;50.864;12.766;2023-01-29T04:35:27;6.67;;;5.27;;
14241;SDS011;7205;50.864;12.766;2023-01-29T04:38:01;6.33;;;5.73;;
14241;SDS011;7205;50.864;12.766;2023-01-29T04:40:37;6.63;;;5.90;;
14241;SDS011;7205;50.864;12.766;2023-01-29T04:43:13;7.17;;;6.00;;
14241;SDS011;7205;50.864;12.766;2023-01-29T04:45:49;7.83;;;6.17;;
14241;SDS011;7205;50.864;12.766;2023-01-29T04:48:31;8.67;;;6.07;;
14241;SDS011;7205;50.864;12.766;2023-01-29T04:51:09;7.03;;;6.33;;
14241;SDS011;7205;50.864;12.766;2023-01-29T04:53:43;9.97;;;6.53;;
14241;SDS011;7205;50.864;12.766;2023-01-29T04:56:17;6.67;;;5.93;;
14241;SDS011;7205;50.864;12.766;2023-01-29T04:58:52;7.57;;;6.40;;
14241;SDS011;7205;50.864;12.766;2023-01-29T05:01:25;8.70;;;6.67;;
14241;SDS011;7205;50.864;12.766;2023-01-29T05:03:57;7.53;;;6.73;;
14241;SDS011;7205;50.864;12.766;2023-01-29T05:06:28;7.93;;;6.77;;
14241;SDS011;7205;50.864;12.766;2023-01-29T05:08:56;6.97;;;6.27;;
14241;SDS011;7205;50.864;12.766;2023-01-29T05:11:26;8.17;;;6.77;;
14241;SDS011;7205;50.864;12.766;2023-01-29T05:13:55;9.33;;;7.00;;
14241;SDS011;7205;50.864;12.766;2023-01-29T05:16:24;7.83;;;7.03;;
14241;SDS011;7205;50.864;12.766;2023-01-29T05:18:53;7.77;;;6.97;;
14241;SDS011;7205;50.864;12.766;2023-01-29T05:21:20;8.13;;;6.80;;
14241;SDS011;7205;50.864;12.766;2023-01-29T05:26:35;8.17;;;7.00;;
14241;SDS011;7205;50.864;12.766;2023-01-29T05:29:20;8.17;;;6.97;;
14241;SDS011;7205;50.864;12.766;2023-01-29T05:31:47;7.73;;;6.80;;
14241;SDS011;7205;50.864;12.766;2023-01-29T05:34:14;10.13;;;6.80;;
14241;SDS011;7205;50.864;12.766;2023-01-29T05:36:41;8.47;;;7.53;;
14241;SDS011;7205;50.864;12.766;2023-01-29T05:39:09;9.40;;;7.13;;
14241;SDS011;7205;50.864;12.766;2023-01-29T05:41:35;8.13;;;7.30;;
14241;SDS011;7205;50.864;12.766;2023-01-29T05:44:02;8.97;;;7.50;;
14241;SDS011;7205;50.864;12.766;2023-01-29T05:46:29;8.90;;;6.80;;
14241;SDS011;7205;50.864;12.766;2023-01-29T05:48:56;7.73;;;6.97;;
14241;SDS011;7205;50.864;12.766;2023-01-29T05:51:23;11.37;;;8.07;;
14241;SDS011;7205;50.864;12.766;2023-01-29T05:53:50;9.70;;;7.80;;
14241;SDS011;7205;50.864;12.766;2023-01-29T05:56:18;9.53;;;8.07;;
14241;SDS011;7205;50.864;12.766;2023-01-29T05:58:45;9.10;;;7.47;;
14241;SDS011;7205;50.864;12.766;2023-01-29T06:01:12;8.67;;;7.20;;
14241;SDS011;7205;50.864;12.766;2023-01-29T06:03:40;9.70;;;7.00;;
14241;SDS011;7205;50.864;12.766;2023-01-29T06:06:08;10.97;;;7.93;;
14241;SDS011;7205;50.864;12.766;2023-01-29T06:08:35;8.37;;;7.20;;
14241;SDS011;7205;50.864;12.766;2023-01-29T06:11:02;8.17;;;6.43;;
14241;SDS011;7205;50.864;12.766;2023-01-29T06:13:30;8.00;;;7.07;;
14241;SDS011;7205;50.864;12.766;2023-01-29T06:15:57;8.60;;;6.83;;
14241;SDS011;7205;50.864;12.766;2023-01-29T06:18:24;10.10;;;7.30;;
14241;SDS011;7205;50.864;12.766;2023-01-29T06:20:50;7.73;;;6.90;;
14241;SDS011;7205;50.864;12.766;2023-01-29T06:23:17;8.43;;;7.17;;
14241;SDS011;7205;50.864;12.766;2023-01-29T06:25:44;9.97;;;8.03;;
14241;SDS011;7205;50.864;12.766;2023-01-29T06:28:11;10.00;;;7.87;;
14241;SDS011;7205;50.864;12.766;2023-01-29T06:30:39;10.47;;;8.23;;
14241;SDS011;7205;50.864;12.766;2023-01-29T06:33:06;11.07;;;8.23;;
14241;SDS011;7205;50.864;12.766;2023-01-29T06:35:32;10.40;;;7.83;;
14241;SDS011;7205;50.864;12.766;2023-01-29T06:37:59;9.87;;;8.27;;
14241;SDS011;7205;50.864;12.766;2023-01-29T06:40:26;9.80;;;8.43;;
14241;SDS011;7205;50.864;12.766;2023-01-29T06:42:53;9.03;;;7.93;;
14241;SDS011;7205;50.864;12.766;2023-01-29T06:45:19;10.23;;;8.70;;
14241;SDS011;7205;50.864;12.766;2023-01-29T06:47:47;9.10;;;8.17;;
14241;SDS011;7205;50.864;12.766;2023-01-29T06:50:14;10.80;;;8.70;;
14241;SDS011;7205;50.864;12.766;2023-01-29T06:52:41;10.60;;;9.07;;
14241;SDS011;7205;50.864;12.766;2023-01-29T06:55:08;11.80;;;8.83;;
14241;SDS011;7205;50.864;12.766;2023-01-29T06:57:35;16.37;;;12.00;;
14241;SDS011;7205;50.864;12.766;2023-01-29T07:00:02;22.20;;;13.33;;
14241;SDS011;7205;50.864;12.766;2023-01-29T07:02:30;16.03;;;12.03;;
14241;SDS011;7205;50.864;12.766;2023-01-29T07:04:58;14.13;;;9.93;;
14241;SDS011;7205;50.864;12.766;2023-01-29T07:07:25;14.83;;;11.13;;
14241;SDS011;7205;50.864;12.766;2023-01-29T07:09:52;17.20;;;12.10;;
14241;SDS011;7205;50.864;12.766;2023-01-29T07:12:19;19.43;;;11.73;;
14241;SDS011;7205;50.864;12.766;2023-01-29T07:14:45;15.30;;;10.30;;
14241;SDS011;7205;50.864;12.766;2023-01-29T07:17:12;15.53;;;11.30;;
14241;SDS011;7205;50.864;12.766;2023-01-29T07:19:39;17.57;;;11.23;;
14241;SDS011;7205;50.864;12.766;2023-01-29T07:22:07;14.83;;;10.87;;
14241;SDS011;7205;50.864;12.766;2023-01-29T07:24:34;14.57;;;10.27;;
14241;SDS011;7205;50.864;12.766;2023-01-29T07:27:01;16.97;;;12.07;;
14241;SDS011;7205;50.864;12.766;2023-01-29T07:29:27;19.47;;;13.77;;
14241;SDS011;7205;50.864;12.766;2023-01-29T07:31:54;25.90;;;17.37;;
14241;SDS011;7205;50.864;12.766;2023-01-29T07:34:21;19.10;;;13.00;;
14241;SDS011;7205;50.864;12.766;2023-01-29T07:36:48;17.30;;;12.57;;
14241;SDS011;7205;50.864;12.766;2023-01-29T07:39:19;12.50;;;10.07;;
14241;SDS011;7205;50.864;12.766;2023-01-29T07:41:46;14.77;;;11.30;;
14241;SDS011;7205;50.864;12.766;2023-01-29T07:44:14;14.40;;;10.80;;
14241;SDS011;7205;50.864;12.766;2023-01-29T07:46:41;17.00;;;12.10;;
14241;SDS011;7205;50.864;12.766;2023-01-29T07:49:08;12.50;;;10.00;;
14241;SDS011;7205;50.864;12.766;2023-01-29T07:51:35;13.47;;;9.67;;
14241;SDS011;7205;50.864;12.766;2023-01-29T07:54:01;14.30;;;10.87;;
14241;SDS011;7205;50.864;12.766;2023-01-29T07:56:30;10.37;;;9.27;;
14241;SDS011;7205;50.864;12.766;2023-01-29T07:58:57;11.37;;;9.23;;
14241;SDS011;7205;50.864;12.766;2023-01-29T08:01:23;10.37;;;9.27;;
14241;SDS011;7205;50.864;12.766;2023-01-29T08:03:50;12.23;;;9.87;;
14241;SDS011;7205;50.864;12.766;2023-01-29T08:06:17;12.80;;;9.90;;
14241;SDS011;7205;50.864;12.766;2023-01-29T08:08:44;11.27;;;8.97;;
14241;SDS011;7205;50.864;12.766;2023-01-29T08:11:10;8.90;;;8.00;;
14241;SDS011;7205;50.864;12.766;2023-01-29T08:13:39;10.23;;;8.50;;
14241;SDS011;7205;50.864;12.766;2023-01-29T08:16:06;12.63;;;8.30;;
14241;SDS011;7205;50.864;12.766;2023-01-29T08:18:37;8.20;;;7.23;;
14241;SDS011;7205;50.864;12.766;2023-01-29T08:21:06;8.80;;;7.90;;
14241;SDS011;7205;50.864;12.766;2023-01-29T08:23:33;9.73;;;8.33;;
14241;SDS011;7205;50.864;12.766;2023-01-29T08:26:01;8.70;;;7.80;;
14241;SDS011;7205;50.864;12.766;2023-01-29T08:28:28;8.57;;;7.70;;
14241;SDS011;7205;50.864;12.766;2023-01-29T08:30:56;9.10;;;8.20;;
14241;SDS011;7205;50.864;12.766;2023-01-29T08:33:23;9.03;;;7.43;;
14241;SDS011;7205;50.864;12.766;2023-01-29T08:35:53;7.80;;;7.00;;
14241;SDS011;7205;50.864;12.766;2023-01-29T08:38:19;9.53;;;7.67;;
14241;SDS011;7205;50.864;12.766;2023-01-29T08:40:46;7.80;;;7.10;;
14241;SDS011;7205;50.864;12.766;2023-01-29T08:43:13;8.27;;;7.37;;
14241;SDS011;7205;50.864;12.766;2023-01-29T08:45:42;9.13;;;7.40;;
14241;SDS011;7205;50.864;12.766;2023-01-29T08:48:10;8.77;;;7.87;;
14241;SDS011;7205;50.864;12.766;2023-01-29T08:50:37;12.07;;;9.07;;
14241;SDS011;7205;50.864;12.766;2023-01-29T08:53:05;10.13;;;8.97;;
14241;SDS011;7205;50.864;12.766;2023-01-29T08:55:34;11.27;;;9.57;;
14241;SDS011;7205;50.864;12.766;2023-01-29T08:58:02;9.17;;;7.77;;
14241;SDS011;7205;50.864;12.766;2023-01-29T09:00:29;10.20;;;9.07;;
14241;SDS011;7205;50.864;12.766;2023-01-29T09:02:56;7.70;;;6.90;;
14241;SDS011;7205;50.864;12.766;2023-01-29T09:05:25;7.60;;;6.90;;
14241;SDS011;7205;50.864;12.766;2023-01-29T09:07:55;8.87;;;7.10;;
14241;SDS011;7205;50.864;12.766;2023-01-29T09:10:22;9.33;;;7.20;;
14241;SDS011;7205;50.864;12.766;2023-01-29T09:12:49;8.70;;;7.07;;
14241;SDS011;7205;50.864;12.766;2023-01-29T09:15:16;8.13;;;7.33;;
14241;SDS011;7205;50.864;12.766;2023-01-29T09:17:42;8.43;;;7.53;;
14241;SDS011;7205;50.864;12.766;2023-01-29T09:20:13;8.47;;;7.57;;
14241;SDS011;7205;50.864;12.766;2023-01-29T09:22:42;8.87;;;7.20;;
14241;SDS011;7205;50.864;12.766;2023-01-29T09:25:09;8.53;;;7.10;;
14241;SDS011;7205;50.864;12.766;2023-01-29T09:27:36;7.67;;;6.97;;
14241;SDS011;7205;50.864;12.766;2023-01-29T09:30:03;8.00;;;7.20;;
14241;SDS011;7205;50.864;12.766;2023-01-29T09:32:31;8.70;;;7.80;;
14241;SDS011;7205;50.864;12.766;2023-01-29T09:34:59;8.10;;;7.40;;
14241;SDS011;7205;50.864;12.766;2023-01-29T09:37:25;8.27;;;7.47;;
14241;SDS011;7205;50.864;12.766;2023-01-29T09:39:54;9.60;;;7.77;;
14241;SDS011;7205;50.864;12.766;2023-01-29T09:42:22;9.43;;;7.40;;
14241;SDS011;7205;50.864;12.766;2023-01-29T09:44:54;9.67;;;7.83;;
14241;SDS011;7205;50.864;12.766;2023-01-29T09:47:26;8.60;;;7.67;;
14241;SDS011;7205;50.864;12.766;2023-01-29T09:49:54;9.07;;;8.20;;
14241;SDS011;7205;50.864;12.766;2023-01-29T09:52:25;10.37;;;7.93;;
14241;SDS011;7205;50.864;12.766;2023-01-29T09:54:56;9.10;;;8.20;;
14241;SDS011;7205;50.864;12.766;2023-01-29T09:57:29;8.57;;;7.67;;
14241;SDS011;7205;50.864;12.766;2023-01-29T10:00:04;9.10;;;8.20;;
14241;SDS011;7205;50.864;12.766;2023-01-29T10:02:46;10.00;;;8.63;;
14241;SDS011;7205;50.864;12.766;2023-01-29T10:05:31;8.50;;;7.63;;
14241;SDS011;7205;50.864;12.766;2023-01-29T10:11:09;8.37;;;7.47;;
14241;SDS011;7205;50.864;12.766;2023-01-29T10:13:47;9.13;;;7.97;;
14241;SDS011;7205;50.864;12.766;2023-01-29T10:16:26;8.60;;;7.80;;
14241;SDS011;7205;50.864;12.766;2023-01-29T10:19:13;8.47;;;7.57;;
14241;SDS011;7205;50.864;12.766;2023-01-29T10:21:59;9.07;;;7.77;;
14241;SDS011;7205;50.864;12.766;2023-01-29T10:24:39;8.70;;;7.87;;
14241;SDS011;7205;50.864;12.766;2023-01-29T10:27:15;7.90;;;7.20;;
14241;SDS011;7205;50.864;12.766;2023-01-29T10:29:43;8.33;;;7.43;;
14241;SDS011;7205;50.864;12.766;2023-01-29T10:32:13;8.87;;;7.60;;
14241;SDS011;7205;50.864;12.766;2023-01-29T10:34:44;8.97;;;7.83;;
14241;SDS011;7205;50.864;12.766;2023-01-29T10:37:15;8.30;;;7.50;;
14241;SDS011;7205;50.864;12.766;2023-01-29T10:39:45;8.90;;;7.73;;
14241;SDS011;7205;50.864;12.766;2023-01-29T10:42:16;8.33;;;7.27;;
14241;SDS011;7205;50.864;12.766;2023-01-29T10:44:59;9.87;;;8.50;;
14241;SDS011;7205;50.864;12.766;2023-01-29T10:50:38;9.23;;;7.73;;
14241;SDS011;7205;50.864;12.766;2023-01-29T10:53:19;9.27;;;8.33;;
14241;SDS011;7205;50.864;12.766;2023-01-29T10:55:58;9.20;;;8.07;;
14241;SDS011;7205;50.864;12.766;2023-01-29T11:14:00;9.00;;;8.10;;
14241;SDS011;7205;50.864;12.766;2023-01-29T12:21:27;7.77;;;6.97;;
14241;SDS011;7205;50.864;12.766;2023-01-29T12:24:11;8.90;;;7.93;;
14241;SDS011;7205;50.864;12.766;2023-01-29T12:26:49;9.53;;;7.97;;
14241;SDS011;7205;50.864;12.766;2023-01-29T12:29:23;9.70;;;7.93;;
14241;SDS011;7205;50.864;12.766;2023-01-29T12:31:58;10.30;;;8.17;;
14241;SDS011;7205;50.864;12.766;2023-01-29T12:34:35;10.03;;;8.03;;
14241;SDS011;7205;50.864;12.766;2023-01-29T12:37:20;11.73;;;9.03;;
14241;SDS011;7205;50.864;12.766;2023-01-29T12:39:52;14.17;;;8.73;;
14241;SDS011;7205;50.864;12.766;2023-01-29T12:42:23;9.30;;;8.30;;
14241;SDS011;7205;50.864;12.766;2023-01-29T12:44:52;13.23;;;8.47;;
14241;SDS011;7205;50.864;12.766;2023-01-29T12:47:26;8.93;;;8.03;;
14241;SDS011;7205;50.864;12.766;2023-01-29T12:49:59;8.93;;;7.90;;
14241;SDS011;7205;50.864;12.766;2023-01-29T12:55:31;9.70;;;8.47;;
14241;SDS011;7205;50.864;12.766;2023-01-29T12:58:11;9.73;;;7.80;;
14241;SDS011;7205;50.864;12.766;2023-01-29T13:00:43;7.53;;;6.73;;
14241;SDS011;7205;50.864;12.766;2023-01-29T13:03:31;8.20;;;7.20;;
14241;SDS011;7205;50.864;12.766;2023-01-29T13:06:39;10.03;;;7.67;;
14241;SDS011;7205;50.864;12.766;2023-01-29T13:09:24;8.70;;;7.90;;
14241;SDS011;7205;50.864;12.766;2023-01-29T13:11:57;10.47;;;8.20;;
14241;SDS011;7205;50.864;12.766;2023-01-29T13:14:32;9.10;;;8.07;;
14241;SDS011;7205;50.864;12.766;2023-01-29T13:17:08;10.40;;;8.10;;
14241;SDS011;7205;50.864;12.766;2023-01-29T13:19:41;8.07;;;7.27;;
14241;SDS011;7205;50.864;12.766;2023-01-29T13:22:14;7.77;;;6.90;;
14241;SDS011;7205;50.864;12.766;2023-01-29T13:24:46;8.40;;;7.60;;
14241;SDS011;7205;50.864;12.766;2023-01-29T13:27:21;8.80;;;7.63;;
14241;SDS011;7205;50.864;12.766;2023-01-29T13:29:51;9.13;;;7.53;;
14241;SDS011;7205;50.864;12.766;2023-01-29T13:32:19;8.40;;;7.57;;
14241;SDS011;7205;50.864;12.766;2023-01-29T13:34:49;9.23;;;7.60;;
14241;SDS011;7205;50.864;12.766;2023-01-29T13:37:20;10.47;;;7.27;;
14241;SDS011;7205;50.864;12.766;2023-01-29T13:39:55;8.23;;;7.40;;
14241;SDS011;7205;50.864;12.766;2023-01-29T13:42:33;10.60;;;7.60;;
14241;SDS011;7205;50.864;12.766;2023-01-29T13:45:04;8.77;;;7.37;;
14241;SDS011;7205;50.864;12.766;2023-01-29T13:47:34;9.33;;;6.80;;
14241;SDS011;7205;50.864;12.766;2023-01-29T13:50:04;7.20;;;6.17;;
14241;SDS011;7205;50.864;12.766;2023-01-29T13:52:34;8.10;;;7.30;;
14241;SDS011;7205;50.864;12.766;2023-01-29T13:55:08;7.33;;;6.50;;
14241;SDS011;7205;50.864;12.766;2023-01-29T13:57:49;7.23;;;6.50;;
14241;SDS011;7205;50.864;12.766;2023-01-29T14:12:32;7.20;;;6.43;;
14241;SDS011;7205;50.864;12.766;2023-01-29T14:15:21;8.37;;;7.57;;
14241;SDS011;7205;50.864;12.766;2023-01-29T14:21:01;7.70;;;6.60;;
14241;SDS011;7205;50.864;12.766;2023-01-29T14:23:38;7.67;;;6.97;;
14241;SDS011;7205;50.864;12.766;2023-01-29T14:26:29;7.60;;;6.90;;
14241;SDS011;7205;50.864;12.766;2023-01-29T14:29:01;7.30;;;6.70;;
14241;SDS011;7205;50.864;12.766;2023-01-29T14:31:35;9.93;;;6.53;;
14241;SDS011;7205;50.864;12.766;2023-01-29T14:34:06;9.07;;;7.37;;
14241;SDS011;7205;50.864;12.766;2023-01-29T14:36:41;7.60;;;6.80;;
14241;SDS011;7205;50.864;12.766;2023-01-29T14:39:18;7.97;;;7.17;;
14241;SDS011;7205;50.864;12.766;2023-01-29T14:41:50;7.87;;;7.17;;
14241;SDS011;7205;50.864;12.766;2023-01-29T14:47:52;8.77;;;7.93;;
14241;SDS011;7205;50.864;12.766;2023-01-29T14:50:41;12.50;;;10.53;;
14241;SDS011;7205;50.864;12.766;2023-01-29T14:53:18;8.87;;;7.53;;
14241;SDS011;7205;50.864;12.766;2023-01-29T14:57:09;7.83;;;6.93;;
14241;SDS011;7205;50.864;12.766;2023-01-29T15:10:21;9.50;;;8.40;;
14241;SDS011;7205;50.864;12.766;2023-01-29T15:12:54;14.93;;;11.67;;
14241;SDS011;7205;50.864;12.766;2023-01-29T15:15:29;13.43;;;9.93;;
14241;SDS011;7205;50.864;12.766;2023-01-29T15:18:00;15.17;;;11.13;;
14241;SDS011;7205;50.864;12.766;2023-01-29T15:20:33;42.63;;;19.53;;
14241;SDS011;7205;50.864;12.766;2023-01-29T15:23:01;13.47;;;10.00;;
14241;SDS011;7205;50.864;12.766;2023-01-29T15:25:32;12.23;;;9.53;;
14241;SDS011;7205;50.864;12.766;2023-01-29T15:28:02;44.87;;;20.33;;
14241;SDS011;7205;50.864;12.766;2023-01-29T15:30:33;17.40;;;11.57;;
14241;SDS011;7205;50.864;12.766;2023-01-29T15:33:02;14.07;;;9.67;;
14241;SDS011;7205;50.864;12.766;2023-01-29T15:35:30;11.17;;;9.37;;
14241;SDS011;7205;50.864;12.766;2023-01-29T15:38:03;9.33;;;8.03;;
14241;SDS011;7205;50.864;12.766;2023-01-29T15:40:32;9.33;;;8.30;;
14241;SDS011;7205;50.864;12.766;2023-01-29T15:42:59;8.80;;;7.53;;
14241;SDS011;7205;50.864;12.766;2023-01-29T15:45:27;7.80;;;7.00;;
14241;SDS011;7205;50.864;12.766;2023-01-29T15:48:00;8.37;;;7.20;;
14241;SDS011;7205;50.864;12.766;2023-01-29T15:50:31;9.33;;;7.93;;
14241;SDS011;7205;50.864;12.766;2023-01-29T15:53:05;9.33;;;7.83;;
14241;SDS011;7205;50.864;12.766;2023-01-29T15:55:38;9.77;;;8.20;;
14241;SDS011;7205;50.864;12.766;2023-01-29T15:58:05;9.93;;;7.40;;
14241;SDS011;7205;50.864;12.766;2023-01-29T16:00:37;9.53;;;8.00;;
14241;SDS011;7205;50.864;12.766;2023-01-29T16:03:12;9.07;;;8.17;;
14241;SDS011;7205;50.864;12.766;2023-01-29T16:05:41;9.50;;;7.93;;
14241;SDS011;7205;50.864;12.766;2023-01-29T16:08:08;9.53;;;8.30;;
14241;SDS011;7205;50.864;12.766;2023-01-29T16:10:40;8.60;;;7.70;;
14241;SDS011;7205;50.864;12.766;2023-01-29T16:13:10;9.30;;;7.73;;
14241;SDS011;7205;50.864;12.766;2023-01-29T16:15:52;8.23;;;7.43;;
14241;SDS011;7205;50.864;12.766;2023-01-29T16:18:21;10.07;;;8.13;;
14241;SDS011;7205;50.864;12.766;2023-01-29T16:20:52;9.83;;;7.57;;
14241;SDS011;7205;50.864;12.766;2023-01-29T16:23:21;9.27;;;7.70;;
14241;SDS011;7205;50.864;12.766;2023-01-29T16:25:51;8.97;;;7.20;;
14241;SDS011;7205;50.864;12.766;2023-01-29T16:28:20;7.90;;;7.10;;
14241;SDS011;7205;50.864;12.766;2023-01-29T16:30:53;11.93;;;7.13;;
14241;SDS011;7205;50.864;12.766;2023-01-29T16:33:22;8.70;;;7.80;;
14241;SDS011;7205;50.864;12.766;2023-01-29T16:35:57;7.97;;;7.17;;
14241;SDS011;7205;50.864;12.766;2023-01-29T16:38:25;9.90;;;7.33;;
14241;SDS011;7205;50.864;12.766;2023-01-29T16:41:03;7.83;;;7.00;;
14241;SDS011;7205;50.864;12.766;2023-01-29T16:43:46;10.70;;;7.53;;
14241;SDS011;7205;50.864;12.766;2023-01-29T16:46:18;10.03;;;7.87;;
14241;SDS011;7205;50.864;12.766;2023-01-29T16:48:50;10.03;;;7.80;;
14241;SDS011;7205;50.864;12.766;2023-01-29T16:51:22;10.83;;;8.13;;
14241;SDS011;7205;50.864;12.766;2023-01-29T16:53:51;8.73;;;7.07;;
14241;SDS011;7205;50.864;12.766;2023-01-29T16:56:23;9.13;;;7.87;;
14241;SDS011;7205;50.864;12.766;2023-01-29T16:58:52;7.90;;;7.13;;
14241;SDS011;7205;50.864;12.766;2023-01-29T17:01:20;10.43;;;7.50;;
14241;SDS011;7205;50.864;12.766;2023-01-29T17:03:55;8.30;;;7.40;;
14241;SDS011;7205;50.864;12.766;2023-01-29T17:06:27;8.50;;;7.10;;
14241;SDS011;7205;50.864;12.766;2023-01-29T17:08:56;9.47;;;7.60;;
14241;SDS011;7205;50.864;12.766;2023-01-29T17:11:25;8.20;;;6.93;;
14241;SDS011;7205;50.864;12.766;2023-01-29T17:13:57;7.50;;;6.80;;
14241;SDS011;7205;50.864;12.766;2023-01-29T17:16:26;8.10;;;7.00;;